Time;durP1;ratioP1;P1;durP2;ratioP2;P2;SDS_P1;SDS_P2;PMS_P1;PMS_P2;Temp;Humidity;BMP_temperature;BMP_pressure;BME280_temperature;BME280_humidity;BME280_pressure;Samples;Min_cycle;Max_cycle;Signal;HPM_P1;HPM_P2
2023/08/18 06:18:26;;;;;;;;;;;;;;;20.99;67.78;99812.06;1087573;54;20985;-83
2023/08/18 06:19:29;;;;;;;;;;;;;;;21.08;67.96;99815.34;1086673;47;19987;-84
2023/08/18 06:53:54;;;;;;;;;;;;;;;21.82;65.28;99841.97;1087652;54;19942;-90
2023/08/18 06:54:55;;;;;;;;;;;;;;;21.94;65.02;99834.72;1088336;54;19934;-87
2023/08/18 06:55:56;;;;;;;;;;;;;;;21.93;64.64;99838.50;1087820;54;19949;-88
2023/08/18 07:34:04;;;;;;;;;;;;;;;24.02;58.87;99814.59;1087144;54;19938;-86
2023/08/18 07:35:08;;;;;;;;;;;;;;;24.18;58.44;99821.22;1087463;54;19943;-87
2023/08/18 07:36:19;;;;;;;;;;;;;;;24.14;58.31;99818.16;1087569;54;20732;-88
2023/08/18 07:37:22;;;;;;;;;;;;;;;24.10;58.26;99822.41;1087355;46;19943;-87
2023/08/18 07:38:25;;;;;;;;;;;;;;;24.31;58.10;99822.84;1087044;47;21142;-88
2023/08/18 07:39:26;;;;;;;;;;;;;;;24.43;56.98;99820.09;1087324;54;19942;-87
2023/08/18 07:40:30;;;;;;;;;;;;;;;24.53;56.85;99819.47;1087391;47;20848;-87
2023/08/18 07:41:31;;;;;;;;;;;;;;;24.68;57.47;99817.06;1087375;47;19945;-87
2023/08/18 07:42:34;;;;;;;;;;;;;;;24.82;57.18;99819.50;1087500;47;19938;-88
2023/08/18 07:43:38;;;;;;;;;;;;;;;24.95;56.85;99821.94;1087403;54;19966;-89
2023/08/18 07:44:42;;;;;;;;;;;;;;;25.10;56.50;99826.03;1087632;54;20314;-88
2023/08/18 07:45:42;;;;;;;;;;;;;;;25.25;55.70;99809.88;1088939;39;20725;-85
2023/08/18 07:46:46;;;;;;;;;;;;;;;25.42;55.70;99814.53;1087534;54;19944;-88
2023/08/18 07:47:47;;;;;;;;;;;;;;;25.53;54.45;99810.88;1087417;47;19939;-87
2023/08/18 07:49:05;;;;;;;;;;;;;;;25.59;54.15;99809.91;1087157;47;21128;-88
2023/08/18 07:50:10;;;;;;;;;;;;;;;25.67;54.96;99816.84;1087094;47;19966;-86
2023/08/18 07:52:37;;;;;;;;;;;;;;;25.87;53.94;99810.88;1087627;47;19938;-86
2023/08/18 07:53:47;;;;;;;;;;;;;;;25.98;52.94;99811.81;1087499;46;20891;-87
2023/08/18 07:55:21;;;;;;;;;;;;;;;;;;;;;
2023/08/18 07:56:54;;;;;;;;;;;;;;;25.86;53.40;99811.94;1087416;47;19945;-87
2023/08/18 07:58:16;;;;;;;;;;;;;;;25.95;53.49;99824.13;1090139;39;20232;-88
2023/08/18 08:02:09;;;;;;;;;;;;;;;26.37;51.54;99813.69;1086987;46;19968;-86
2023/08/18 08:03:13;;;;;;;;;;;;;;;26.23;51.92;99814.09;1087076;47;19958;-86
2023/08/18 08:04:16;;;;;;;;;;;;;;;26.37;52.40;99809.06;1087209;46;19939;-88
2023/08/18 08:05:44;;;;;;;;;;;;;;;26.47;52.09;99814.66;1087253;54;19943;-87
2023/08/18 08:07:00;;;;;;;;;;;;;;;26.46;51.36;99801.22;1087325;47;19939;-86
2023/08/18 08:08:28;;;;;;;;;;;;;;;26.75;51.59;99803.72;1087301;47;19938;-91
2023/08/18 08:22:31;;;;;;;;;;;;;;;28.16;48.55;99812.81;1089942;39;20144;-87
2023/08/18 08:23:32;;;;;;;;;;;;;;;28.19;48.19;99812.28;1087045;47;20007;-86
2023/08/18 08:24:35;;;;;;;;;;;;;;;28.36;47.84;99812.06;1087337;54;19966;-84
2023/08/18 08:25:37;;;;;;;;;;;;;;;28.40;47.93;99815.94;1087155;54;19943;-85
2023/08/18 08:26:40;;;;;;;;;;;;;;;28.47;47.90;99813.75;1087103;46;19950;-87
2023/08/18 08:27:41;;;;;;;;;;;;;;;28.65;47.22;99806.13;1087698;39;21039;-85
2023/08/18 08:28:46;;;;;;;;;;;;;;;28.78;47.14;99805.63;1087165;47;19939;-86
2023/08/18 08:29:48;;;;;;;;;;;;;;;28.97;47.01;99802.38;1087434;54;19958;-86
2023/08/18 08:30:54;;;;;;;;;;;;;;;29.16;46.14;99804.56;1087678;39;20616;-85
2023/08/18 08:31:55;;;;;;;;;;;;;;;29.16;45.58;99802.63;1087141;47;19938;-86
2023/08/18 08:32:59;;;;;;;;;;;;;;;29.06;46.65;99800.72;1087184;47;20030;-86
2023/08/18 08:34:06;;;;;;;;;;;;;;;29.18;46.27;99807.88;1087031;46;19939;-81
2023/08/18 08:36:56;;;;;;;;;;;;;;;29.46;45.69;99802.94;1087025;54;19943;-83
2023/08/18 08:38:07;;;;;;;;;;;;;;;29.66;45.03;99800.16;1087118;54;19942;-85
2023/08/18 08:40:20;;;;;;;;;;;;;;;29.79;45.22;99800.69;1087158;47;21096;-84
2023/08/18 08:42:25;;;;;;;;;;;;;;;29.90;45.07;99799.56;1087224;54;19934;-88
2023/08/18 08:43:29;;;;;;;;;;;;;;;29.97;44.71;99802.03;1088782;39;20145;-87
2023/08/18 08:44:33;;;;;;;;;;;;;;;30.15;44.52;99795.06;1087555;46;19949;-87
2023/08/18 08:49:42;;;;;;;;;;;;;;;30.49;43.92;99792.44;1087465;39;20855;-88
2023/08/18 08:50:45;;;;;;;;;;;;;;;30.60;42.88;99787.75;1087129;47;19939;-85
2023/08/18 08:51:50;;;;;;;;;;;;;;;30.55;43.61;99787.75;1087156;47;19954;-86
2023/08/18 08:52:55;;;;;;;;;;;;;;;30.60;43.66;99784.97;1087119;47;19938;-86
2023/08/18 08:54:01;;;;;;;;;;;;;;;30.71;43.61;99779.38;1087096;46;19939;-85
2023/08/18 08:55:05;;;;;;;;;;;;;;;30.65;42.48;99782.19;1087050;47;19948;-86
2023/08/18 08:56:07;;;;;;;;;;;;;;;30.42;42.77;99785.59;1087230;54;19943;-84
2023/08/18 08:57:13;;;;;;;;;;;;;;;29.87;43.53;99780.81;1087066;47;19945;-84
2023/08/18 08:58:14;;;;;;;;;;;;;;;29.80;44.25;99783.88;1087016;47;19970;-84
2023/08/18 08:59:19;;;;;;;;;;;;;;;29.63;44.05;99786.94;1086905;47;20990;-82
2023/08/18 09:00:20;;;;;;;;;;;;;;;29.71;44.32;99782.78;1087182;54;19968;-80
2023/08/18 09:01:25;;;;;;;;;;;;;;;29.79;44.10;99785.00;1087154;47;19939;-85
2023/08/18 09:02:26;;;;;;;;;;;;;;;29.79;44.23;99785.00;1087065;54;20982;-86
2023/08/18 09:03:30;;;;;;;;;;;;;;;29.61;44.13;99794.66;1086946;47;20626;-84
2023/08/18 09:04:31;;;;;;;;;;;;;;;29.69;44.29;99790.53;1086993;47;19949;-84
2023/08/18 09:05:35;;;;;;;;;;;;;;;29.98;44.20;99787.97;1086976;47;19938;-84
2023/08/18 09:06:37;;;;;;;;;;;;;;;29.75;43.78;99788.59;1087003;47;19965;-84
2023/08/18 09:07:41;;;;;;;;;;;;;;;29.59;43.18;99791.34;1087975;39;20811;-86
2023/08/18 09:10:30;;;;;;;;;;;;;;;30.45;42.73;99790.53;1086841;47;19967;-85
2023/08/18 09:11:48;;;;;;;;;;;;;;;30.28;42.16;99786.22;1086855;47;19946;-84
2023/08/18 09:14:22;;;;;;;;;;;;;;;30.12;42.86;99787.38;1089388;39;20671;-84
2023/08/18 09:15:24;;;;;;;;;;;;;;;30.25;42.29;99781.25;1087007;54;19949;-83
2023/08/18 09:16:27;;;;;;;;;;;;;;;30.23;42.53;99788.97;1087094;54;20672;-82
2023/08/18 09:17:41;;;;;;;;;;;;;;;30.34;42.95;99784.25;1086944;47;19947;-84
2023/08/18 09:18:45;;;;;;;;;;;;;;;30.52;42.30;99787.47;1086913;47;20045;-83
2023/08/18 09:19:49;;;;;;;;;;;;;;;30.42;42.36;99780.91;1086961;54;19942;-86
2023/08/18 09:20:56;;;;;;;;;;;;;;;30.44;42.56;99788.88;1087057;46;20928;-85
2023/08/18 09:22:03;;;;;;;;;;;;;;;30.68;41.98;99785.47;1091039;39;20986;-83
2023/08/18 09:23:07;;;;;;;;;;;;;;;30.71;41.67;99780.22;1086991;47;19939;-86
2023/08/18 09:24:09;;;;;;;;;;;;;;;30.89;42.43;99778.69;1086884;46;19963;-85
2023/08/18 09:25:21;;;;;;;;;;;;;;;30.56;41.33;99786.66;1087210;47;19950;-86
2023/08/18 09:26:35;;;;;;;;;;;;;;;30.11;41.79;99781.03;1087095;54;19954;-86
2023/08/18 09:27:39;;;;;;;;;;;;;;;30.30;42.21;99783.16;1089358;39;20754;-88
2023/08/18 09:31:30;;;;;;;;;;;;;;;31.03;41.74;99778.03;1074273;54;19943;-88
2023/08/18 09:37:10;;;;;;;;;;;;;;;31.27;41.07;99776.19;1085157;47;19946;31
2023/08/18 09:42:24;;;;;;;;;;;;;;;30.77;41.43;99769.97;1087619;54;19939;-85
2023/08/18 09:43:27;;;;;;;;;;;;;;;30.77;41.18;99770.78;1087302;47;19939;-86
2023/08/18 09:44:30;;;;;;;;;;;;;;;30.68;41.38;99771.69;1087542;54;19943;-87
2023/08/18 09:46:48;;;;;;;;;;;;;;;31.25;40.50;99764.66;1088007;39;20940;-84
2023/08/18 09:47:52;;;;;;;;;;;;;;;31.16;40.39;99768.31;1087584;47;19961;-86
2023/08/18 09:48:55;;;;;;;;;;;;;;;31.21;40.47;99766.34;1087479;54;19977;-84
2023/08/18 09:49:59;;;;;;;;;;;;;;;31.14;40.81;99767.78;1087170;54;19943;-87
2023/08/18 09:52:08;;;;;;;;;;;;;;;31.67;40.33;99758.69;1087318;54;19959;-85
2023/08/18 09:53:11;;;;;;;;;;;;;;;31.70;39.73;99764.47;1086950;47;19938;-84
2023/08/18 09:54:21;;;;;;;;;;;;;;;31.41;40.21;99768.06;1088512;39;20753;-86
2023/08/18 09:58:15;;;;;;;;;;;;;;;31.88;40.24;99757.38;1087031;54;19938;-86
2023/08/18 09:59:23;;;;;;;;;;;;;;;31.71;39.73;99757.03;1087387;54;19959;-84
2023/08/18 10:00:41;;;;;;;;;;;;;;;31.86;39.15;99751.31;1087148;47;19939;-84
2023/08/18 10:01:52;;;;;;;;;;;;;;;31.83;39.10;99748.31;1090247;39;20599;-85
2023/08/18 10:08:13;;;;;;;;;;;;;;;31.67;39.42;99744.88;1087025;54;19952;-86
2023/08/18 10:09:55;;;;;;;;;;;;;;;31.97;39.17;99756.72;1087371;47;19945;-87
2023/08/18 10:11:04;;;;;;;;;;;;;;;32.19;37.97;99748.72;1087722;54;19946;-87
2023/08/18 10:23:21;;;;;;;;;;;;;;;33.67;33.80;99745.00;1087270;47;19969;-86
2023/08/18 10:28:20;;;;;;;;;;;;;;;33.73;33.41;99744.59;1077571;54;21426;31
2023/08/18 10:29:26;;;;;;;;;;;;;;;34.01;33.12;99743.78;1085661;46;19939;31
2023/08/18 10:32:00;;;;;;;;;;;;;;;34.03;33.87;99734.03;1085372;54;19943;-85
2023/08/18 10:33:06;;;;;;;;;;;;;;;33.86;34.37;99739.38;1087059;46;20840;-84
2023/08/18 10:34:22;;;;;;;;;;;;;;;34.20;34.58;99740.88;1087910;47;19934;-87
2023/08/18 10:36:42;;;;;;;;;;;;;;;33.75;34.58;99728.47;1087304;54;19939;-88
2023/08/18 10:37:48;;;;;;;;;;;;;;;33.82;34.88;99732.81;1086686;47;19939;-86
2023/08/18 10:38:57;;;;;;;;;;;;;;;33.83;33.95;99731.66;1087195;47;19943;-85
2023/08/18 10:41:11;;;;;;;;;;;;;;;34.21;33.46;99726.72;1087057;54;19938;-85
2023/08/18 10:42:15;;;;;;;;;;;;;;;34.31;33.04;99731.19;1087650;47;19939;-84
2023/08/18 10:43:20;;;;;;;;;;;;;;;34.02;33.40;99724.06;1087303;47;19962;-88
2023/08/18 10:44:25;;;;;;;;;;;;;;;33.66;33.83;99730.31;1087589;39;20605;-86
2023/08/18 10:45:30;;;;;;;;;;;;;;;33.67;33.83;99734.75;1087118;47;19938;-86
2023/08/18 10:46:35;;;;;;;;;;;;;;;33.97;33.39;99729.72;1087401;47;19963;-86
2023/08/18 10:48:48;;;;;;;;;;;;;;;34.36;32.68;99722.78;1087183;54;19938;-86
2023/08/18 10:49:49;;;;;;;;;;;;;;;33.85;33.86;99726.63;1087133;47;19950;-86
2023/08/18 10:50:54;;;;;;;;;;;;;;;33.67;34.26;99723.66;1087238;54;19947;-86
2023/08/18 10:51:55;;;;;;;;;;;;;;;34.09;34.38;99731.97;1087126;47;21145;-83
2023/08/18 10:53:01;;;;;;;;;;;;;;;33.86;34.28;99718.06;1086997;47;19950;-83
2023/08/18 10:54:07;;;;;;;;;;;;;;;34.01;34.66;99722.41;1087164;54;19958;-84
2023/08/18 10:55:12;;;;;;;;;;;;;;;33.89;34.06;99724.91;1089649;39;20793;-86
2023/08/18 10:56:13;;;;;;;;;;;;;;;34.18;33.84;99715.44;1087235;47;19995;-84
2023/08/18 10:57:38;;;;;;;;;;;;;;;34.30;33.73;99723.19;1087171;47;20878;-84
2023/08/18 10:58:44;;;;;;;;;;;;;;;34.43;33.62;99718.78;1087126;47;19951;-84
2023/08/18 10:59:48;;;;;;;;;;;;;;;34.40;33.17;99722.16;1087412;47;20886;-85
2023/08/18 11:00:50;;;;;;;;;;;;;;;34.23;32.95;99715.31;1087501;54;19926;-85
2023/08/18 11:01:54;;;;;;;;;;;;;;;34.13;33.14;99712.75;1087606;47;19939;-86
2023/08/18 11:02:57;;;;;;;;;;;;;;;34.09;33.35;99720.06;1092024;39;20761;-85
2023/08/18 11:04:01;;;;;;;;;;;;;;;33.76;34.01;99718.22;1088671;39;20239;-86
2023/08/18 11:05:04;;;;;;;;;;;;;;;33.32;34.39;99712.13;1087181;47;19938;-85
2023/08/18 11:07:49;;;;;;;;;;;;;;;32.57;34.55;99713.91;1087041;47;20220;-86
2023/08/18 11:08:50;;;;;;;;;;;;;;;32.34;35.18;99713.69;1087002;47;19965;-86
2023/08/18 11:09:57;;;;;;;;;;;;;;;32.09;35.40;99709.31;1087174;47;19981;-88
2023/08/18 11:10:59;;;;;;;;;;;;;;;31.95;36.06;99714.75;1087138;47;19942;-85
2023/08/18 11:12:11;;;;;;;;;;;;;;;32.19;35.64;99715.53;1087274;54;20288;-87
2023/08/18 11:13:22;;;;;;;;;;;;;;;32.25;36.04;99712.72;1086924;47;19945;-84
2023/08/18 11:14:35;;;;;;;;;;;;;;;32.38;35.94;99700.94;1087044;47;19958;-84
2023/08/18 11:15:36;;;;;;;;;;;;;;;32.01;36.17;99697.00;1087321;47;19994;-85
2023/08/18 11:16:41;;;;;;;;;;;;;;;31.84;35.26;99706.59;1087244;54;19949;-84
2023/08/18 11:17:43;;;;;;;;;;;;;;;31.82;35.59;99703.31;1087812;39;20899;-85
2023/08/18 11:18:47;;;;;;;;;;;;;;;31.85;35.30;99702.69;1087546;47;19990;-86
2023/08/18 11:19:48;;;;;;;;;;;;;;;32.02;35.39;99698.66;1087298;47;19944;-87
2023/08/18 11:20:52;;;;;;;;;;;;;;;31.87;35.04;99694.13;1087419;54;19946;-85
2023/08/18 11:21:57;;;;;;;;;;;;;;;31.86;35.21;99690.53;1087295;54;20041;-86
2023/08/18 11:23:08;;;;;;;;;;;;;;;31.82;35.51;99695.03;1087524;46;19946;-86
2023/08/18 11:24:11;;;;;;;;;;;;;;;31.91;35.66;99695.16;1087470;47;19939;-87
2023/08/18 11:25:22;;;;;;;;;;;;;;;31.85;35.66;99693.59;1089122;46;19965;-88
2023/08/18 11:26:24;;;;;;;;;;;;;;;32.02;35.89;99688.41;1087559;54;19954;-86
2023/08/18 11:29:35;;;;;;;;;;;;;;;32.12;36.32;99684.66;1087067;54;19939;-86
2023/08/18 11:30:37;;;;;;;;;;;;;;;32.03;36.50;99683.69;1087290;54;19943;-84
2023/08/18 11:31:42;;;;;;;;;;;;;;;31.81;36.98;99676.81;1087237;54;19949;-85
2023/08/18 11:32:47;;;;;;;;;;;;;;;31.43;37.67;99683.00;1087098;47;20826;-84
2023/08/18 11:33:55;;;;;;;;;;;;;;;31.59;37.67;99689.19;1086885;46;20012;-85
2023/08/18 11:34:56;;;;;;;;;;;;;;;31.66;37.46;99679.69;1086638;46;19961;-85
2023/08/18 11:36:01;;;;;;;;;;;;;;;31.64;37.39;99681.97;1087316;54;19966;-86
2023/08/18 11:37:04;;;;;;;;;;;;;;;31.56;37.53;99673.19;1086975;47;20680;-84
2023/08/18 11:38:10;;;;;;;;;;;;;;;31.56;37.97;99687.00;1087363;47;19969;-86
2023/08/18 11:40:28;;;;;;;;;;;;;;;31.47;37.54;99680.47;1087758;54;20808;-83
2023/08/18 11:41:35;;;;;;;;;;;;;;;31.41;37.85;99678.91;1087504;47;19945;-83
2023/08/18 11:42:38;;;;;;;;;;;;;;;31.35;37.63;99680.09;1087568;46;19942;-86
2023/08/18 11:43:42;;;;;;;;;;;;;;;31.41;37.58;99674.19;1087290;46;19939;-88
2023/08/18 11:44:49;;;;;;;;;;;;;;;31.55;37.89;99668.78;1087461;46;19943;-89
2023/08/18 11:48:20;;;;;;;;;;;;;;;31.30;37.70;99672.69;1087001;54;19946;-83
2023/08/18 11:49:21;;;;;;;;;;;;;;;31.35;37.74;99666.28;1087462;47;19938;-86
2023/08/18 11:50:31;;;;;;;;;;;;;;;31.47;37.50;99671.38;1087358;46;19938;-83
2023/08/18 11:51:33;;;;;;;;;;;;;;;31.61;37.13;99671.50;1087339;46;19963;-87
2023/08/18 11:52:44;;;;;;;;;;;;;;;31.77;37.02;99658.34;1087580;46;19946;-87
2023/08/18 11:53:48;;;;;;;;;;;;;;;31.74;36.53;99655.06;1087634;46;19984;-87
2023/08/18 11:54:52;;;;;;;;;;;;;;;31.76;36.47;99663.03;1087499;46;19934;-90
2023/08/18 11:55:56;;;;;;;;;;;;;;;31.79;36.00;99656.94;1087240;47;20002;-84
2023/08/18 11:57:00;;;;;;;;;;;;;;;31.77;35.93;99653.63;1087383;54;19958;-87
2023/08/18 11:58:06;;;;;;;;;;;;;;;31.82;36.16;99650.81;1087932;54;19943;-86
2023/08/18 11:59:10;;;;;;;;;;;;;;;31.86;35.91;99656.56;1087350;46;19947;-86
2023/08/18 12:01:43;;;;;;;;;;;;;;;32.01;35.08;99658.31;1087424;54;19990;-85
2023/08/18 12:03:03;;;;;;;;;;;;;;;32.13;34.29;99655.91;1091654;39;20654;-87
2023/08/18 12:08:04;;;;;;;;;;;;;;;32.18;33.50;99649.47;1086832;54;19990;-84
2023/08/18 12:09:07;;;;;;;;;;;;;;;32.10;34.28;99656.50;1087819;47;19939;-85
2023/08/18 12:10:11;;;;;;;;;;;;;;;32.07;34.65;99650.75;1087614;46;19942;-84
2023/08/18 12:11:20;;;;;;;;;;;;;;;32.20;34.63;99647.25;1087417;46;19939;-89
2023/08/18 12:12:27;;;;;;;;;;;;;;;32.26;34.23;99650.78;1087061;54;19947;-85
2023/08/18 12:13:31;;;;;;;;;;;;;;;32.15;34.36;99650.09;1086672;47;19954;-86
2023/08/18 12:14:36;;;;;;;;;;;;;;;32.16;33.81;99644.25;1086636;47;19939;-86
2023/08/18 12:15:37;;;;;;;;;;;;;;;32.16;33.70;99654.50;1086987;54;19943;-86
2023/08/18 12:16:41;;;;;;;;;;;;;;;32.13;33.89;99649.56;1087055;46;21063;-84
2023/08/18 12:17:42;;;;;;;;;;;;;;;32.16;33.51;99638.72;1086991;54;19991;-84
2023/08/18 12:18:43;;;;;;;;;;;;;;;32.16;33.94;99644.25;1087043;47;19939;-85
2023/08/18 12:19:47;;;;;;;;;;;;;;;32.14;33.48;99637.38;1087004;47;19945;-85
2023/08/18 12:20:48;;;;;;;;;;;;;;;32.13;34.13;99639.31;1086949;47;20006;-86
2023/08/18 12:21:52;;;;;;;;;;;;;;;32.15;33.94;99631.53;1087028;47;19939;-86
2023/08/18 12:22:54;;;;;;;;;;;;;;;32.08;34.30;99636.63;1086980;54;19942;-85
2023/08/18 12:23:58;;;;;;;;;;;;;;;32.00;34.18;99643.66;1087063;47;19938;-85
2023/08/18 12:24:59;;;;;;;;;;;;;;;32.03;34.17;99639.47;1087359;54;19975;-85
2023/08/18 12:26:03;;;;;;;;;;;;;;;32.10;34.03;99634.41;1087107;54;20025;-84
2023/08/18 12:27:07;;;;;;;;;;;;;;;32.06;33.94;99633.34;1086825;54;19965;-85
2023/08/18 12:28:11;;;;;;;;;;;;;;;32.15;34.17;99637.06;1087104;54;19943;-84
2023/08/18 12:29:13;;;;;;;;;;;;;;;32.26;34.25;99636.97;1087124;47;19938;-86
2023/08/18 12:30:16;;;;;;;;;;;;;;;32.27;33.95;99641.38;1087266;46;20361;-86
2023/08/18 12:31:22;;;;;;;;;;;;;;;32.35;34.18;99635.16;1087066;47;19939;-85
2023/08/18 12:32:35;;;;;;;;;;;;;;;;;;;;;
2023/08/18 12:33:40;;;;;;;;;;;;;;;32.48;34.19;99634.41;1086974;47;19974;-86
2023/08/18 12:34:41;;;;;;;;;;;;;;;32.58;33.97;99638.13;1086974;54;19943;-85
2023/08/18 12:35:45;;;;;;;;;;;;;;;32.54;34.09;99632.38;1087210;47;19945;-85
2023/08/18 12:36:46;;;;;;;;;;;;;;;32.60;34.27;99635.84;1087296;54;20022;-85
2023/08/18 12:37:51;;;;;;;;;;;;;;;32.68;34.05;99637.94;1087233;54;19949;-84
2023/08/18 12:38:52;;;;;;;;;;;;;;;32.71;33.90;99631.78;1087220;47;19938;-85
2023/08/18 12:39:57;;;;;;;;;;;;;;;32.79;33.43;99636.66;1087302;46;19955;-86
2023/08/18 12:42:05;;;;;;;;;;;;;;;32.97;33.04;99637.72;1087220;54;20613;-84
2023/08/18 12:44:20;;;;;;;;;;;;;;;33.10;32.92;99633.34;1087308;54;19938;-87
2023/08/18 12:45:21;;;;;;;;;;;;;;;33.17;32.29;99635.69;1087724;54;19942;-85
2023/08/18 12:46:25;;;;;;;;;;;;;;;33.24;32.30;99629.75;1087541;46;19938;-84
2023/08/18 12:49:54;;;;;;;;;;;;;;;33.27;31.35;99629.13;1088024;54;19943;-84
2023/08/18 12:52:00;;;;;;;;;;;;;;;33.28;31.22;99628.00;1088299;54;19931;-86
2023/08/18 12:53:01;;;;;;;;;;;;;;;33.33;30.88;99633.50;1087820;54;19942;-87
2023/08/18 12:55:10;;;;;;;;;;;;;;;33.24;30.66;99636.09;1087553;54;20795;-84
2023/08/18 12:59:07;;;;;;;;;;;;;;;33.25;30.98;99637.75;1087532;54;19950;-86
2023/08/18 13:00:13;;;;;;;;;;;;;;;33.13;30.63;99632.72;1086979;47;19945;-85
2023/08/18 13:01:17;;;;;;;;;;;;;;;33.19;30.32;99630.69;1087491;47;19966;-86
2023/08/18 13:02:18;;;;;;;;;;;;;;;33.18;29.86;99631.81;1087436;47;19938;-88
2023/08/18 13:03:22;;;;;;;;;;;;;;;33.19;30.11;99632.63;1087321;47;19998;-84
2023/08/18 13:04:23;;;;;;;;;;;;;;;33.31;29.84;99632.09;1087808;54;20015;-86
2023/08/18 13:06:35;;;;;;;;;;;;;;;33.35;30.15;99633.97;1087825;54;19942;-84
2023/08/18 13:07:37;;;;;;;;;;;;;;;33.36;30.24;99630.09;1087226;47;19938;-85
2023/08/18 13:08:40;;;;;;;;;;;;;;;33.39;30.26;99625.91;1087660;47;19979;-85
2023/08/18 13:10:46;;;;;;;;;;;;;;;33.36;29.33;99632.03;1087817;46;19962;-87
2023/08/18 13:11:47;;;;;;;;;;;;;;;33.42;29.32;99634.41;1087499;47;20054;-86
2023/08/18 13:12:51;;;;;;;;;;;;;;;33.41;29.51;99632.75;1087423;47;20344;-86
2023/08/18 13:14:59;;;;;;;;;;;;;;;33.41;28.87;99634.69;1087911;54;19938;-86
2023/08/18 13:16:02;;;;;;;;;;;;;;;33.42;28.82;99626.09;1087723;47;19969;-85
2023/08/18 13:17:08;;;;;;;;;;;;;;;33.46;28.75;99622.69;1087233;46;21131;-85
2023/08/18 13:18:09;;;;;;;;;;;;;;;33.51;28.81;99622.59;1087145;46;19963;-84
2023/08/18 13:19:20;;;;;;;;;;;;;;;33.53;28.53;99635.00;1086921;54;19942;-84
2023/08/18 13:20:21;;;;;;;;;;;;;;;33.54;28.86;99627.50;1087205;54;19949;-86
2023/08/18 13:21:25;;;;;;;;;;;;;;;33.53;28.75;99628.66;1087759;46;19938;-83
2023/08/18 13:23:39;;;;;;;;;;;;;;;33.63;28.92;99633.97;1088073;54;19942;-86
2023/08/18 13:24:41;;;;;;;;;;;;;;;33.64;28.61;99634.78;1087739;54;19943;-85
2023/08/18 13:25:44;;;;;;;;;;;;;;;33.66;28.94;99630.56;1087789;54;19994;-86
2023/08/18 13:26:46;;;;;;;;;;;;;;;33.70;28.94;99625.22;1087445;47;19950;-86
2023/08/18 13:27:50;;;;;;;;;;;;;;;33.75;29.23;99631.50;1087116;47;19965;-87
2023/08/18 13:28:51;;;;;;;;;;;;;;;33.70;28.94;99634.38;1087093;47;19942;-85
2023/08/18 13:29:55;;;;;;;;;;;;;;;33.77;28.85;99633.13;1086927;47;19987;-87
2023/08/18 13:30:57;;;;;;;;;;;;;;;33.65;28.74;99620.63;1087267;54;19987;-86
2023/08/18 13:32:04;;;;;;;;;;;;;;;33.68;28.78;99624.72;1087074;47;19975;-88
2023/08/18 13:33:05;;;;;;;;;;;;;;;33.70;28.43;99626.06;1087203;46;19950;-86
2023/08/18 13:34:09;;;;;;;;;;;;;;;33.68;28.89;99630.25;1087272;54;19942;-85
2023/08/18 13:36:15;;;;;;;;;;;;;;;33.62;28.76;99631.50;1087452;54;19959;-86
2023/08/18 13:39:51;;;;;;;;;;;;;;;33.72;28.05;99631.28;1086818;54;22020;-85
2023/08/18 13:40:52;;;;;;;;;;;;;;;33.75;28.34;99620.41;1087120;54;19942;-84
2023/08/18 13:41:56;;;;;;;;;;;;;;;33.68;28.04;99628.31;1087796;54;19943;-86
2023/08/18 13:42:58;;;;;;;;;;;;;;;33.75;27.96;99628.72;1087412;46;19946;-86
2023/08/18 13:44:03;;;;;;;;;;;;;;;33.79;27.83;99630.88;1087216;47;19938;-85
2023/08/18 13:45:05;;;;;;;;;;;;;;;33.66;27.52;99627.81;1086954;47;19938;-84
2023/08/18 13:46:13;;;;;;;;;;;;;;;33.56;27.52;99626.09;1087080;47;19945;-84
2023/08/18 13:47:17;;;;;;;;;;;;;;;33.71;27.91;99624.94;1088142;39;20234;-87
2023/08/18 13:49:23;;;;;;;;;;;;;;;33.79;27.44;99630.88;1087809;54;19949;-85
2023/08/18 13:51:33;;;;;;;;;;;;;;;33.79;27.94;99626.13;1083903;54;19959;-85
2023/08/18 13:52:35;;;;;;;;;;;;;;;33.83;28.26;99620.78;1086746;47;19962;-84
2023/08/18 13:54:54;;;;;;;;;;;;;;;33.78;27.81;99624.50;1086969;54;19943;-83
2023/08/18 13:55:57;;;;;;;;;;;;;;;33.75;28.22;99611.28;1087320;47;19938;-88
2023/08/18 13:58:02;;;;;;;;;;;;;;;33.80;28.25;99621.44;1089238;39;20223;-87
2023/08/18 13:59:04;;;;;;;;;;;;;;;33.84;28.32;99611.34;1087781;54;19949;-87
2023/08/18 14:00:09;;;;;;;;;;;;;;;33.84;28.09;99612.19;1088951;46;19960;-88
2023/08/18 14:01:13;;;;;;;;;;;;;;;33.85;27.62;99616.59;1087627;54;19939;-87
2023/08/18 14:02:20;;;;;;;;;;;;;;;33.82;28.08;99608.09;1087428;46;19939;-86
2023/08/18 14:05:53;;;;;;;;;;;;;;;33.88;26.96;99621.53;1091458;39;21026;-86
2023/08/18 14:06:56;;;;;;;;;;;;;;;33.87;27.47;99610.78;1089897;39;20157;-87
2023/08/18 14:08:00;;;;;;;;;;;;;;;33.80;27.30;99621.44;1087225;47;19939;-84
2023/08/18 14:09:02;;;;;;;;;;;;;;;33.88;27.33;99613.22;1088024;46;19974;-85
2023/08/18 14:10:06;;;;;;;;;;;;;;;33.80;26.88;99613.13;1087179;47;19991;-86
2023/08/18 14:11:08;;;;;;;;;;;;;;;33.66;27.15;99613.16;1086811;47;20006;-85
2023/08/18 14:12:12;;;;;;;;;;;;;;;33.70;27.07;99605.84;1089826;39;21073;-86
2023/08/18 14:13:14;;;;;;;;;;;;;;;33.82;26.93;99608.09;1089729;31;20855;-86
2023/08/18 14:14:15;;;;;;;;;;;;;;;33.82;26.79;99608.09;1086845;54;19973;-83
2023/08/18 14:15:19;;;;;;;;;;;;;;;33.81;27.04;99609.22;1087484;47;19993;-84
2023/08/18 14:16:20;;;;;;;;;;;;;;;33.74;27.05;99607.69;1087140;54;19973;-89
2023/08/18 14:18:28;;;;;;;;;;;;;;;33.80;26.77;99605.63;1087595;54;19978;-86
2023/08/18 14:19:29;;;;;;;;;;;;;;;33.75;26.79;99608.50;1088416;39;20638;-86
2023/08/18 14:21:43;;;;;;;;;;;;;;;33.85;27.09;99602.75;1087681;54;19982;-86
2023/08/18 14:22:46;;;;;;;;;;;;;;;33.92;27.39;99607.88;1086898;47;19991;-84
2023/08/18 14:23:50;;;;;;;;;;;;;;;33.95;26.94;99600.91;1087083;54;19992;-86
2023/08/18 14:24:51;;;;;;;;;;;;;;;34.00;26.92;99603.53;1087341;39;20788;-86
2023/08/18 14:25:55;;;;;;;;;;;;;;;34.03;27.18;99605.69;1086800;47;19963;-85
2023/08/18 14:26:56;;;;;;;;;;;;;;;34.05;27.02;99601.47;1086792;47;19946;-84
2023/08/18 14:28:02;;;;;;;;;;;;;;;34.03;26.54;99592.66;1087161;54;19965;-86
2023/08/18 14:29:05;;;;;;;;;;;;;;;34.07;26.85;99598.38;1087386;47;19946;-86
2023/08/18 14:30:07;;;;;;;;;;;;;;;34.11;26.38;99593.84;1087256;46;19969;-86
2023/08/18 14:31:11;;;;;;;;;;;;;;;34.06;26.60;99596.72;1087199;47;19939;-85
2023/08/18 14:32:12;;;;;;;;;;;;;;;34.09;26.57;99590.56;1087070;47;20029;-86
2023/08/18 14:33:16;;;;;;;;;;;;;;;34.06;27.04;99588.41;1089815;39;20629;-85
2023/08/18 14:34:20;;;;;;;;;;;;;;;34.02;26.43;99587.41;1086846;54;19950;-85
2023/08/18 14:35:21;;;;;;;;;;;;;;;34.06;26.25;99592.03;1086940;47;20003;-85
2023/08/18 14:37:27;;;;;;;;;;;;;;;34.05;26.55;99592.34;1087507;54;19942;-85
2023/08/18 14:38:28;;;;;;;;;;;;;;;33.96;26.67;99585.91;1087036;47;19943;-85
2023/08/18 14:39:32;;;;;;;;;;;;;;;33.81;27.28;99593.41;1086805;47;19988;-86
2023/08/18 14:40:33;;;;;;;;;;;;;;;33.90;26.81;99585.22;1087288;39;21049;-86
2023/08/18 14:43:53;;;;;;;;;;;;;;;33.98;26.25;99578.09;1088115;54;19973;-87
2023/08/18 14:44:55;;;;;;;;;;;;;;;33.91;26.44;99589.63;1087119;47;19963;-86
2023/08/18 14:45:58;;;;;;;;;;;;;;;34.02;25.92;99579.91;1087033;47;19942;-86
2023/08/18 14:46:59;;;;;;;;;;;;;;;34.03;25.84;99570.47;1087240;54;19943;-86
2023/08/18 14:48:05;;;;;;;;;;;;;;;34.06;25.91;99580.94;1087525;39;21069;-87
2023/08/18 14:49:06;;;;;;;;;;;;;;;34.06;25.71;99586.47;1087517;54;19927;-86
2023/08/18 14:51:14;;;;;;;;;;;;;;;34.01;25.41;99583.00;1087256;54;19950;-84
2023/08/18 14:52:15;;;;;;;;;;;;;;;34.05;25.67;99581.25;1087546;54;19999;-85
2023/08/18 14:53:20;;;;;;;;;;;;;;;34.06;25.54;99580.94;1087519;47;19926;-85
2023/08/18 14:54:21;;;;;;;;;;;;;;;34.00;25.74;99575.81;1087296;47;19943;-84
2023/08/18 14:55:28;;;;;;;;;;;;;;;33.98;25.48;99570.59;1086990;47;19939;-84
2023/08/18 14:56:29;;;;;;;;;;;;;;;34.02;25.68;99570.78;1086914;47;19946;-85
2023/08/18 14:57:33;;;;;;;;;;;;;;;34.04;25.41;99579.63;1086906;54;19938;-85
2023/08/18 14:58:34;;;;;;;;;;;;;;;34.13;25.69;99576.91;1086877;47;19946;-85
2023/08/18 14:59:39;;;;;;;;;;;;;;;34.16;25.66;99573.50;1087035;54;19957;-87
2023/08/18 15:00:41;;;;;;;;;;;;;;;34.12;25.65;99578.03;1087095;47;19970;-86